North Monmouth, Maine
Current Conditions -  °F | °C
As of 5:53 AM on Friday 19 Dec 2014 (Local Time) from KAUG Reporting Station
Scattered Clouds Scattered Clouds  
Wind Chill: 28°   Ceiling: Unl
Heat Index: 28°   Visibility: 10mi
Dew Point: 20°   Wind: 0mph
Humidity: 72%   Direction: NA
Pressure: 29.82"   Gusts: NA
Location:  44.28°N, 70.03°W
Report Text: KAUG 191053Z AUTO 00000KT 10SM FEW033 SCT080 M02/M07 A2982 RMK AO2 SLP104 T10221067
Loading
Personal Weather Stations






























Interactive Weather Map New forecast layout! Learn more

10-Day Weather Forecast

Advertisements
Track Severe Weather on mobile